createdAt,value
2022-12-03T00:00:26.736Z,99951.47
2022-12-03T00:02:53.316Z,99960.25
2022-12-03T00:05:19.934Z,99962.88
2022-12-03T00:07:46.439Z,99962.88
2022-12-03T00:10:13.076Z,99968.16
2022-12-03T00:12:39.830Z,99959.38
2022-12-03T00:15:07.294Z,99961.09
2022-12-03T00:17:33.872Z,99950.63
2022-12-03T00:20:00.537Z,99948.84
2022-12-03T00:22:26.990Z,99954.06
2022-12-03T00:24:53.887Z,99960.22
2022-12-03T00:27:20.594Z,99953.19
2022-12-03T00:29:47.430Z,99941.78
2022-12-03T00:32:14.237Z,99950.53
2022-12-03T00:34:40.789Z,99946.16
2022-12-03T00:37:07.283Z,99947.00
2022-12-03T00:39:33.811Z,99947.91
2022-12-03T00:42:00.428Z,99945.28
2022-12-03T00:44:27.076Z,99940.91
2022-12-03T00:46:53.638Z,99936.47
2022-12-03T00:49:20.150Z,99945.28
2022-12-03T00:51:46.673Z,99948.78
2022-12-03T00:54:13.186Z,99944.38
2022-12-03T00:56:39.710Z,99941.72
2022-12-03T00:59:06.198Z,99949.63
2022-12-03T01:01:32.831Z,99945.22
2022-12-03T01:03:59.331Z,99938.22
2022-12-03T01:06:25.867Z,99943.56
2022-12-03T01:08:52.337Z,99943.50
2022-12-03T01:11:37.467Z,99943.50
2022-12-03T01:14:09.820Z,99939.09
2022-12-03T01:16:36.862Z,99937.38
2022-12-03T01:19:05.136Z,99940.84
2022-12-03T01:21:32.502Z,99941.72
2022-12-03T01:23:59.949Z,99933.81
2022-12-03T01:26:26.730Z,99947.00
2022-12-03T01:28:53.319Z,99940.81
2022-12-03T01:31:38.869Z,99938.16
2022-12-03T01:34:06.054Z,99929.41
2022-12-03T01:36:34.339Z,99938.16
2022-12-03T01:39:02.132Z,99930.22
2022-12-03T01:41:29.766Z,99934.69
2022-12-03T01:43:57.991Z,99935.53
2022-12-03T01:46:31.896Z,99933.75
2022-12-03T01:48:58.495Z,99937.25
2022-12-03T01:51:25.246Z,99938.09
2022-12-03T01:56:21.379Z,99918.78
2022-12-03T01:58:48.528Z,99925.91
2022-12-03T02:01:17.983Z,99930.25
2022-12-03T02:03:46.125Z,99933.69
2022-12-03T02:06:21.280Z,99937.31
2022-12-03T02:08:49.085Z,99932.09
2022-12-03T02:11:25.486Z,99926.75
2022-12-03T02:13:55.480Z,99925.78
2022-12-03T02:16:22.288Z,99923.16
2022-12-03T02:18:49.009Z,99929.34
2022-12-03T02:21:24.628Z,99932.84
2022-12-03T02:24:01.607Z,99929.28
2022-12-03T02:26:29.788Z,99929.34
2022-12-03T02:28:57.072Z,99925.91
2022-12-03T02:31:24.195Z,99924.13
2022-12-03T02:33:51.087Z,99925.84
2022-12-03T02:36:17.666Z,99928.47
2022-12-03T02:38:45.458Z,99917.03
2022-12-03T02:41:35.620Z,99925.84
2022-12-03T02:44:03.604Z,99924.97
2022-12-03T02:46:30.678Z,99917.97
2022-12-03T02:48:57.652Z,99911.81
2022-12-03T02:51:25.801Z,99917.06
2022-12-03T02:53:54.770Z,99918.81
2022-12-03T02:56:26.779Z,99920.56
2022-12-03T02:58:57.466Z,99916.16
2022-12-03T03:01:24.154Z,99924.91
2022-12-03T03:03:51.975Z,99927.56
2022-12-03T03:06:19.929Z,99922.28
2022-12-03T03:08:46.492Z,99925.78
2022-12-03T03:11:13.257Z,99924.00
2022-12-03T03:13:40.123Z,99923.13
2022-12-03T03:16:08.003Z,99923.13
2022-12-03T03:18:35.035Z,99924.00
2022-12-03T03:21:01.886Z,99925.78
2022-12-03T03:23:28.453Z,99909.09
2022-12-03T03:26:03.852Z,99921.50
2022-12-03T03:28:31.389Z,99916.16
2022-12-03T03:31:00.706Z,99917.06
2022-12-03T03:33:27.761Z,99924.94
2022-12-03T03:35:54.490Z,99916.19
2022-12-03T03:38:22.253Z,99916.16
2022-12-03T03:40:50.886Z,99917.09
2022-12-03T03:43:17.657Z,99915.31
2022-12-03T03:45:44.543Z,99910.09
2022-12-03T03:48:12.148Z,99915.31
2022-12-03T03:50:38.959Z,99912.69
2022-12-03T03:53:06.073Z,99910.97
2022-12-03T03:55:33.275Z,99912.66
2022-12-03T03:58:00.067Z,99914.38
2022-12-03T04:00:26.979Z,99918.84
2022-12-03T04:02:54.106Z,99915.25
2022-12-03T04:05:22.721Z,99912.69
2022-12-03T04:07:49.639Z,99907.41
2022-12-03T04:10:36.971Z,99908.25
2022-12-03T04:13:04.112Z,99908.31
2022-12-03T04:15:31.035Z,99901.28
2022-12-03T04:18:17.142Z,99900.41
2022-12-03T04:20:43.859Z,99896.81
2022-12-03T04:23:10.498Z,99901.22
2022-12-03T04:26:03.342Z,99896.81
2022-12-03T04:28:48.323Z,99903.00
2022-12-03T04:31:33.488Z,99890.69
2022-12-03T04:34:18.174Z,99896.81
2022-12-03T04:36:44.745Z,99898.63
2022-12-03T04:39:11.208Z,99898.56
2022-12-03T04:41:37.807Z,99896.75
2022-12-03T04:44:33.737Z,99899.38
2022-12-03T04:47:01.332Z,99900.34
2022-12-03T04:49:27.914Z,99895.03
2022-12-03T04:51:54.400Z,99902.06
2022-12-03T04:54:21.030Z,99887.97
2022-12-03T04:56:47.673Z,99901.16
2022-12-03T04:59:16.600Z,99892.47
2022-12-03T05:01:44.082Z,99901.25
2022-12-03T05:04:11.663Z,99892.50
2022-12-03T05:06:38.610Z,99899.44
2022-12-03T05:09:05.370Z,99895.16
2022-12-03T05:11:31.814Z,99901.22
2022-12-03T05:13:58.442Z,99896.81
2022-12-03T05:16:25.220Z,99884.53
2022-12-03T05:18:51.770Z,99884.50
2022-12-03T05:21:18.432Z,99889.00
2022-12-03T05:23:44.949Z,99890.72
2022-12-03T05:26:11.505Z,99886.31
2022-12-03T05:28:38.564Z,99882.78
2022-12-03T05:31:05.848Z,99880.19
2022-12-03T05:33:32.523Z,99882.81
2022-12-03T05:35:59.298Z,99873.16
2022-12-03T05:38:25.936Z,99883.75
2022-12-03T05:40:52.505Z,99878.47
2022-12-03T05:43:19.071Z,99874.06
2022-12-03T05:45:45.964Z,99867.00
2022-12-03T05:48:13.570Z,99873.16
2022-12-03T05:50:43.214Z,99869.66
2022-12-03T05:53:10.541Z,99871.41
2022-12-03T05:55:37.452Z,99874.06
2022-12-03T05:58:04.076Z,99874.06
2022-12-03T06:00:34.578Z,99879.34
2022-12-03T06:03:08.031Z,99875.84
2022-12-03T06:05:34.887Z,99877.63
2022-12-03T06:08:02.131Z,99881.16
2022-12-03T06:10:29.857Z,99879.38
2022-12-03T06:12:56.792Z,99871.47
2022-12-03T06:15:23.452Z,99872.28
2022-12-03T06:17:50.094Z,99871.47
2022-12-03T06:20:18.364Z,99874.19
2022-12-03T06:22:45.640Z,99876.75
2022-12-03T06:25:12.688Z,99871.47
2022-12-03T06:27:39.233Z,99874.13
2022-12-03T06:30:06.688Z,99881.97
2022-12-03T06:32:33.303Z,99873.16
2022-12-03T06:34:59.871Z,99874.97
2022-12-03T06:37:26.348Z,99884.66
2022-12-03T06:39:52.877Z,99878.47
2022-12-03T06:42:19.384Z,99886.38
2022-12-03T06:44:46.061Z,99879.34
2022-12-03T06:47:12.530Z,99884.59
2022-12-03T06:49:39.011Z,99891.66
2022-12-03T06:52:05.597Z,99886.41
2022-12-03T06:54:32.173Z,99878.47
2022-12-03T06:56:58.688Z,99885.53
2022-12-03T06:59:25.277Z,99882.03
2022-12-03T07:01:51.966Z,99880.25
2022-12-03T07:04:18.523Z,99881.13
2022-12-03T07:06:45.063Z,99883.75
2022-12-03T07:09:11.619Z,99881.13
2022-12-03T07:11:40.949Z,99879.38
2022-12-03T07:14:09.173Z,99878.47
2022-12-03T07:16:36.227Z,99877.63
2022-12-03T07:19:04.706Z,99876.75
2022-12-03T07:21:31.543Z,99877.66
2022-12-03T07:23:58.081Z,99865.34
2022-12-03T07:26:24.655Z,99871.47
2022-12-03T07:28:51.189Z,99870.56
2022-12-03T07:31:17.766Z,99871.47
2022-12-03T07:33:44.494Z,99875.88
2022-12-03T07:36:11.165Z,99871.50
2022-12-03T07:38:37.748Z,99870.63
2022-12-03T07:41:04.311Z,99871.53
2022-12-03T07:43:30.885Z,99875.03
2022-12-03T07:45:57.453Z,99888.28
2022-12-03T07:48:23.960Z,99880.34
2022-12-03T07:50:50.643Z,99876.84
2022-12-03T07:53:17.348Z,99873.31
2022-12-03T07:55:43.902Z,99878.59
2022-12-03T07:58:10.619Z,99872.50
2022-12-03T08:00:37.186Z,99869.88
2022-12-03T08:03:03.742Z,99869.03
2022-12-03T08:05:30.421Z,99870.84
2022-12-03T08:07:57.079Z,99869.97
2022-12-03T08:10:25.578Z,99877.03
2022-12-03T08:12:53.715Z,99866.47
2022-12-03T08:15:25.706Z,99869.13
2022-12-03T08:17:55.913Z,99868.19
2022-12-03T08:20:24.627Z,99869.97
2022-12-03T08:22:52.959Z,99863.84
2022-12-03T08:25:23.593Z,99857.66
2022-12-03T08:27:53.544Z,99858.56
2022-12-03T08:30:20.617Z,99858.56
2022-12-03T08:32:47.272Z,99857.69
2022-12-03T08:35:24.245Z,99854.19
2022-12-03T08:38:16.326Z,99855.97
2022-12-03T08:40:46.856Z,99856.88
2022-12-03T08:43:19.178Z,99852.50
2022-12-03T08:45:45.974Z,99863.97
2022-12-03T08:48:18.538Z,99861.34
2022-12-03T08:50:45.877Z,99859.56
2022-12-03T08:53:31.311Z,99863.97
2022-12-03T08:56:05.160Z,99862.25
2022-12-03T08:58:38.836Z,99863.16
2022-12-03T09:01:11.100Z,99869.28
2022-12-03T09:03:39.692Z,99873.75
2022-12-03T09:06:06.629Z,99871.16
2022-12-03T09:08:33.117Z,99877.28
2022-12-03T09:10:59.735Z,99871.16
2022-12-03T09:13:26.232Z,99868.50
2022-12-03T09:15:52.883Z,99872.00
2022-12-03T09:18:19.380Z,99870.28
2022-12-03T09:20:45.891Z,99867.69
2022-12-03T09:23:12.389Z,99867.72
2022-12-03T09:25:38.934Z,99869.41
2022-12-03T09:28:05.727Z,99869.44
2022-12-03T09:30:32.316Z,99871.25
2022-12-03T09:33:00.131Z,99865.06
2022-12-03T09:35:27.829Z,99864.22
2022-12-03T09:37:54.502Z,99859.78
2022-12-03T09:40:21.704Z,99864.22
2022-12-03T09:42:48.734Z,99862.44
2022-12-03T09:45:15.930Z,99863.34
2022-12-03T09:47:49.352Z,99854.56
2022-12-03T09:50:23.157Z,99862.50
2022-12-03T09:52:51.697Z,99856.31
2022-12-03T09:55:22.415Z,99863.41
2022-12-03T09:57:49.009Z,99856.31
2022-12-03T10:00:18.716Z,99856.34
2022-12-03T10:02:46.901Z,99852.88
2022-12-03T10:05:14.533Z,99857.28
2022-12-03T10:07:42.014Z,99846.69
2022-12-03T10:10:16.650Z,99857.25
2022-12-03T10:12:43.586Z,99844.91
2022-12-03T10:15:17.448Z,99844.06
2022-12-03T10:17:45.707Z,99843.19
2022-12-03T10:20:16.282Z,99831.78
2022-12-03T10:22:42.843Z,99840.56
2022-12-03T10:25:13.164Z,99831.78
2022-12-03T10:27:40.843Z,99830.91
2022-12-03T10:30:22.411Z,99837.09
2022-12-03T10:32:50.769Z,99831.81
2022-12-03T10:35:20.807Z,99825.66
2022-12-03T10:38:03.653Z,99825.66
2022-12-03T10:40:33.031Z,99824.78
2022-12-03T10:43:28.924Z,99832.72
2022-12-03T10:46:04.151Z,99828.28
2022-12-03T10:48:31.076Z,99825.63
2022-12-03T10:51:21.131Z,99824.78
2022-12-03T10:53:49.348Z,99828.31
2022-12-03T10:56:24.084Z,99826.53
2022-12-03T10:58:51.181Z,99828.28
2022-12-03T11:01:20.559Z,99826.53
2022-12-03T11:03:47.886Z,99810.69
2022-12-03T11:06:23.098Z,99820.38
2022-12-03T11:08:58.402Z,99809.81
2022-12-03T11:11:29.342Z,99820.34
2022-12-03T11:14:00.635Z,99811.56
2022-12-03T11:16:39.254Z,99802.75
2022-12-03T11:19:17.504Z,99800.09
2022-12-03T11:22:02.744Z,99800.09
2022-12-03T11:24:29.733Z,99798.34
2022-12-03T11:26:56.124Z,99800.97
2022-12-03T11:29:47.335Z,99800.09
2022-12-03T11:32:38.984Z,99800.09
2022-12-03T11:35:13.036Z,99790.41
2022-12-03T11:37:39.898Z,99787.75
2022-12-03T11:40:18.326Z,99788.63
2022-12-03T11:42:47.156Z,99791.31
2022-12-03T11:45:28.336Z,99785.13
2022-12-03T11:48:15.029Z,99782.47
2022-12-03T11:50:52.244Z,99781.59
2022-12-03T11:53:23.681Z,99788.69
2022-12-03T11:56:06.636Z,99781.63
2022-12-03T11:58:35.293Z,99780.72
2022-12-03T12:01:04.576Z,99781.59
2022-12-03T12:03:37.303Z,99777.22
2022-12-03T12:06:21.146Z,99783.41
2022-12-03T12:08:50.648Z,99772.84
2022-12-03T12:11:34.682Z,99774.63
2022-12-03T12:14:06.915Z,99771.97
2022-12-03T12:16:50.829Z,99766.69
2022-12-03T12:19:27.530Z,99771.13
2022-12-03T12:21:55.085Z,99771.13
2022-12-03T12:24:54.862Z,99769.38
2022-12-03T12:27:29.353Z,99763.19
2022-12-03T12:29:58.521Z,99757.88
2022-12-03T12:32:28.852Z,99759.69
2022-12-03T12:35:02.096Z,99749.09
2022-12-03T12:37:46.331Z,99750.00
2022-12-03T12:40:16.115Z,99748.22
2022-12-03T12:42:54.017Z,99738.53
2022-12-03T12:45:23.349Z,99741.22
2022-12-03T12:48:10.133Z,99733.28
2022-12-03T12:50:38.009Z,99733.28
2022-12-03T12:53:24.569Z,99728.84
2022-12-03T12:55:56.114Z,99730.63
2022-12-03T12:58:22.800Z,99730.63
2022-12-03T13:00:53.188Z,99730.63
2022-12-03T13:03:22.226Z,99720.06
2022-12-03T13:05:50.924Z,99722.69
2022-12-03T13:08:41.954Z,99709.47
2022-12-03T13:11:34.347Z,99710.34
2022-12-03T13:14:05.850Z,99714.75
2022-12-03T13:16:33.114Z,99705.97
2022-12-03T13:19:01.488Z,99704.19
2022-12-03T13:21:41.089Z,99705.06
2022-12-03T13:24:38.692Z,99711.22
2022-12-03T13:27:21.794Z,99710.38
2022-12-03T13:29:56.084Z,99704.19
2022-12-03T13:32:34.092Z,99704.19
2022-12-03T13:35:16.250Z,99710.34
2022-12-03T13:37:42.872Z,99707.72
2022-12-03T13:40:23.916Z,99713.88
2022-12-03T13:42:50.498Z,99711.25
2022-12-03T13:45:19.804Z,99710.38
2022-12-03T13:47:46.229Z,99709.47
2022-12-03T13:50:21.678Z,99711.22
2022-12-03T13:52:48.449Z,99709.47
2022-12-03T13:55:31.231Z,99702.41
2022-12-03T13:57:58.265Z,99697.13
2022-12-03T14:00:24.769Z,99710.38
2022-12-03T14:02:51.308Z,99714.75
2022-12-03T14:05:17.984Z,99705.97
2022-12-03T14:07:44.588Z,99711.22
2022-12-03T14:10:12.948Z,99710.34
2022-12-03T14:12:39.493Z,99717.41
2022-12-03T14:15:06.893Z,99711.25
2022-12-03T14:17:33.434Z,99712.13
2022-12-03T14:20:03.759Z,99712.13
2022-12-03T14:22:30.810Z,99701.56
2022-12-03T14:24:57.717Z,99705.06
2022-12-03T14:27:24.865Z,99713.00
2022-12-03T14:29:52.479Z,99705.94
2022-12-03T14:32:19.361Z,99710.34
2022-12-03T14:34:45.894Z,99711.22
2022-12-03T14:37:12.641Z,99708.63
2022-12-03T14:39:39.578Z,99720.06
2022-12-03T14:42:15.262Z,99719.19
2022-12-03T14:44:44.418Z,99712.13
2022-12-03T14:47:12.352Z,99707.72
2022-12-03T14:49:38.863Z,99705.94
2022-12-03T14:52:08.607Z,99713.88
2022-12-03T14:54:39.205Z,99709.50
2022-12-03T14:57:05.781Z,99710.38
2022-12-03T14:59:32.286Z,99720.06
2022-12-03T15:01:58.929Z,99710.38
2022-12-03T15:04:25.539Z,99713.00
2022-12-03T15:07:10.627Z,99710.38
2022-12-03T15:09:37.347Z,99710.34
2022-12-03T15:12:04.874Z,99703.31
2022-12-03T15:14:31.427Z,99716.53
2022-12-03T15:16:57.984Z,99716.53
2022-12-03T15:19:24.611Z,99718.28
2022-12-03T15:21:51.083Z,99720.94
2022-12-03T15:24:17.579Z,99718.28
2022-12-03T15:26:44.119Z,99710.34
2022-12-03T15:29:10.599Z,99712.13
2022-12-03T15:31:37.155Z,99723.56
2022-12-03T15:34:03.649Z,99716.53
2022-12-03T15:36:30.105Z,99716.50
2022-12-03T15:38:57.586Z,99705.06
2022-12-03T15:41:28.943Z,99705.94
2022-12-03T15:43:58.407Z,99702.44
2022-12-03T15:46:27.670Z,99714.78
2022-12-03T15:48:55.264Z,99711.22
2022-12-03T15:51:22.060Z,99708.59
2022-12-03T15:53:48.558Z,99710.38
2022-12-03T15:56:15.369Z,99713.88
2022-12-03T15:58:41.927Z,99714.75
2022-12-03T16:01:09.273Z,99712.97
2022-12-03T16:03:36.449Z,99712.09
2022-12-03T16:06:03.074Z,99714.75
2022-12-03T16:08:29.623Z,99714.72
2022-12-03T16:10:56.124Z,99706.81
2022-12-03T16:13:22.598Z,99708.59
2022-12-03T16:15:49.126Z,99713.88
2022-12-03T16:18:15.691Z,99713.88
2022-12-03T16:20:42.185Z,99711.22
2022-12-03T16:23:08.678Z,99701.56
2022-12-03T16:25:35.187Z,99711.22
2022-12-03T16:28:01.621Z,99710.34
2022-12-03T16:30:28.164Z,99709.47
2022-12-03T16:32:54.585Z,99709.47
2022-12-03T16:35:21.056Z,99705.94
2022-12-03T16:37:47.550Z,99700.66
2022-12-03T16:40:14.171Z,99693.63
2022-12-03T16:42:40.773Z,99696.25
2022-12-03T16:45:08.040Z,99694.50
2022-12-03T16:47:35.146Z,99697.16
2022-12-03T16:50:06.582Z,99693.63
2022-12-03T20:04:40.187Z,99672.50
2022-12-03T20:07:06.751Z,99666.31
2022-12-03T20:09:33.248Z,99667.22
2022-12-03T20:11:59.700Z,99659.28
2022-12-03T20:14:26.262Z,99667.22
2022-12-03T20:16:52.853Z,99659.28
2022-12-03T20:19:19.408Z,99661.94
2022-12-03T20:21:45.892Z,99665.47
2022-12-03T20:24:17.258Z,99661.94
2022-12-03T20:26:43.956Z,99659.28
2022-12-03T20:29:10.632Z,99656.63
2022-12-03T20:31:37.305Z,99656.66
2022-12-03T20:34:04.349Z,99650.50
2022-12-03T20:36:31.572Z,99658.41
2022-12-03T20:39:00.976Z,99654.00
2022-12-03T20:41:28.299Z,99653.13
2022-12-03T20:43:54.944Z,99648.72
2022-12-03T20:46:29.306Z,99658.41
2022-12-03T20:48:56.409Z,99655.75
2022-12-03T20:51:24.463Z,99641.69
2022-12-03T20:53:51.486Z,99645.19
2022-12-03T20:56:20.314Z,99639.03
2022-12-03T20:58:48.841Z,99636.41
2022-12-03T21:01:21.852Z,99636.38
2022-12-03T21:03:49.706Z,99637.28
2022-12-03T21:06:16.964Z,99635.53
2022-12-03T21:08:44.182Z,99638.16
2022-12-03T21:11:13.185Z,99639.94
2022-12-03T21:13:43.934Z,99640.78
2022-12-03T21:16:13.228Z,99639.91
2022-12-03T21:18:39.988Z,99644.31
2022-12-03T21:21:07.231Z,99631.13
2022-12-03T21:23:34.802Z,99640.81
2022-12-03T21:26:05.327Z,99647.84
2022-12-03T21:28:34.718Z,99636.38
2022-12-03T21:31:06.510Z,99638.16
2022-12-03T21:33:33.683Z,99638.16
2022-12-03T21:36:01.324Z,99634.66
2022-12-03T21:38:29.065Z,99624.06
2022-12-03T21:40:56.128Z,99631.97
2022-12-03T21:43:22.576Z,99629.34
2022-12-03T21:45:49.572Z,99631.97
2022-12-03T21:48:16.516Z,99622.28
2022-12-03T21:50:43.289Z,99620.53
2022-12-03T21:53:12.991Z,99624.06
2022-12-03T21:55:40.694Z,99623.16
2022-12-03T21:58:09.966Z,99624.91
2022-12-03T22:00:36.477Z,99624.03
2022-12-03T22:03:05.994Z,99618.75
2022-12-03T22:05:32.503Z,99621.38
2022-12-03T22:07:59.070Z,99623.16
2022-12-03T22:10:25.642Z,99631.94
2022-12-03T22:12:52.085Z,99628.44
2022-12-03T22:15:19.529Z,99627.56
2022-12-03T22:17:46.465Z,99630.22
2022-12-03T22:20:13.035Z,99619.63
2022-12-03T22:22:39.595Z,99621.38
2022-12-03T22:25:06.509Z,99631.94
2022-12-03T22:27:32.919Z,99626.69
2022-12-03T22:29:59.512Z,99628.44
2022-12-03T22:32:26.118Z,99624.03
2022-12-03T22:34:52.675Z,99631.97
2022-12-03T22:37:19.163Z,99631.97
2022-12-03T22:39:45.662Z,99629.31
2022-12-03T22:42:12.136Z,99625.78
2022-12-03T22:44:38.669Z,99622.22
2022-12-03T22:47:05.256Z,99624.81
2022-12-03T22:49:31.685Z,99604.56
2022-12-03T22:51:58.183Z,99613.38
2022-12-03T22:54:24.737Z,99610.78
2022-12-03T22:56:51.273Z,99608.13
2022-12-03T22:59:17.851Z,99605.50
2022-12-03T23:01:44.390Z,99600.19
2022-12-03T23:04:11.937Z,99597.50
2022-12-03T23:06:38.609Z,99592.25
2022-12-03T23:09:07.229Z,99587.84
2022-12-03T23:11:33.967Z,99583.44
2022-12-03T23:14:00.527Z,99580.78
2022-12-03T23:16:29.660Z,99582.53
2022-12-03T23:18:59.345Z,99577.28
2022-12-03T23:21:30.329Z,99577.28
2022-12-03T23:24:01.697Z,99577.31
2022-12-03T23:26:28.880Z,99579.06
2022-12-03T23:28:55.882Z,99568.47
2022-12-03T23:31:23.579Z,99571.16
2022-12-03T23:33:51.175Z,99569.41
2022-12-03T23:36:18.295Z,99569.41
2022-12-03T23:38:44.730Z,99563.25
2022-12-03T23:41:15.129Z,99556.19
2022-12-03T23:43:42.462Z,99571.16
2022-12-03T23:46:27.715Z,99551.78
2022-12-03T23:48:54.809Z,99559.75
2022-12-03T23:51:22.556Z,99563.25
2022-12-03T23:53:49.129Z,99562.38
2022-12-03T23:56:18.710Z,99561.50
2022-12-03T23:58:46.282Z,99568.56
